sensor_id;sensor_type;location;lat;lon;timestamp;P1;durP1;ratioP1;P2;durP2;ratioP2
18695;SDS011;22617;43.690;27.956;2024-01-30T00:01:19;39.00;;;14.27;;
18695;SDS011;22617;43.690;27.956;2024-01-30T00:06:22;42.77;;;14.03;;
18695;SDS011;22617;43.690;27.956;2024-01-30T00:11:26;44.03;;;15.67;;
18695;SDS011;22617;43.690;27.956;2024-01-30T00:16:32;43.73;;;15.67;;
18695;SDS011;22617;43.690;27.956;2024-01-30T00:21:35;42.43;;;15.20;;
18695;SDS011;22617;43.690;27.956;2024-01-30T00:26:40;43.43;;;14.97;;
18695;SDS011;22617;43.690;27.956;2024-01-30T00:31:45;42.47;;;15.30;;
18695;SDS011;22617;43.690;27.956;2024-01-30T00:36:48;36.93;;;13.80;;
18695;SDS011;22617;43.690;27.956;2024-01-30T00:41:52;42.07;;;15.70;;
18695;SDS011;22617;43.690;27.956;2024-01-30T00:46:57;41.83;;;15.17;;
18695;SDS011;22617;43.690;27.956;2024-01-30T00:52:00;43.30;;;15.30;;
18695;SDS011;22617;43.690;27.956;2024-01-30T00:57:04;42.27;;;14.83;;
18695;SDS011;22617;43.690;27.956;2024-01-30T01:02:09;42.27;;;15.17;;
18695;SDS011;22617;43.690;27.956;2024-01-30T01:07:13;45.67;;;15.83;;
18695;SDS011;22617;43.690;27.956;2024-01-30T01:12:16;43.47;;;14.03;;
18695;SDS011;22617;43.690;27.956;2024-01-30T01:17:21;45.80;;;15.50;;
18695;SDS011;22617;43.690;27.956;2024-01-30T01:22:24;42.87;;;14.63;;
18695;SDS011;22617;43.690;27.956;2024-01-30T01:27:28;46.27;;;14.87;;
18695;SDS011;22617;43.690;27.956;2024-01-30T01:32:33;45.57;;;14.83;;
18695;SDS011;22617;43.690;27.956;2024-01-30T01:37:36;42.97;;;13.70;;
18695;SDS011;22617;43.690;27.956;2024-01-30T01:42:40;44.10;;;15.57;;
18695;SDS011;22617;43.690;27.956;2024-01-30T01:47:45;42.40;;;15.00;;
18695;SDS011;22617;43.690;27.956;2024-01-30T01:52:50;43.47;;;14.60;;
18695;SDS011;22617;43.690;27.956;2024-01-30T01:57:54;45.77;;;15.40;;
18695;SDS011;22617;43.690;27.956;2024-01-30T02:03:00;43.63;;;14.83;;
18695;SDS011;22617;43.690;27.956;2024-01-30T02:08:04;44.83;;;15.80;;
18695;SDS011;22617;43.690;27.956;2024-01-30T02:13:09;45.77;;;15.97;;
18695;SDS011;22617;43.690;27.956;2024-01-30T02:18:14;49.57;;;16.87;;
18695;SDS011;22617;43.690;27.956;2024-01-30T02:23:38;43.17;;;14.43;;
18695;SDS011;22617;43.690;27.956;2024-01-30T02:28:44;46.37;;;15.30;;
18695;SDS011;22617;43.690;27.956;2024-01-30T02:33:47;45.13;;;14.60;;
18695;SDS011;22617;43.690;27.956;2024-01-30T02:38:53;45.63;;;14.67;;
18695;SDS011;22617;43.690;27.956;2024-01-30T02:43:56;38.57;;;13.73;;
18695;SDS011;22617;43.690;27.956;2024-01-30T02:49:00;39.50;;;14.47;;
18695;SDS011;22617;43.690;27.956;2024-01-30T02:54:05;42.37;;;14.27;;
18695;SDS011;22617;43.690;27.956;2024-01-30T02:59:08;40.10;;;13.87;;
18695;SDS011;22617;43.690;27.956;2024-01-30T03:04:12;43.30;;;15.00;;
18695;SDS011;22617;43.690;27.956;2024-01-30T03:09:17;49.77;;;15.37;;
18695;SDS011;22617;43.690;27.956;2024-01-30T03:14:21;41.90;;;14.27;;
18695;SDS011;22617;43.690;27.956;2024-01-30T03:19:24;45.33;;;15.97;;
18695;SDS011;22617;43.690;27.956;2024-01-30T03:24:29;40.17;;;14.57;;
18695;SDS011;22617;43.690;27.956;2024-01-30T03:29:32;47.23;;;15.77;;
18695;SDS011;22617;43.690;27.956;2024-01-30T03:34:36;46.37;;;15.10;;
18695;SDS011;22617;43.690;27.956;2024-01-30T03:39:41;48.77;;;15.67;;
18695;SDS011;22617;43.690;27.956;2024-01-30T03:44:44;40.07;;;14.37;;
18695;SDS011;22617;43.690;27.956;2024-01-30T03:49:48;52.20;;;17.67;;
18695;SDS011;22617;43.690;27.956;2024-01-30T03:54:53;61.40;;;20.53;;
18695;SDS011;22617;43.690;27.956;2024-01-30T03:59:56;50.43;;;18.63;;
18695;SDS011;22617;43.690;27.956;2024-01-30T04:05:13;44.23;;;15.50;;
18695;SDS011;22617;43.690;27.956;2024-01-30T04:10:18;41.33;;;14.23;;
18695;SDS011;22617;43.690;27.956;2024-01-30T04:15:22;46.93;;;14.97;;
18695;SDS011;22617;43.690;27.956;2024-01-30T04:20:25;45.50;;;15.10;;
18695;SDS011;22617;43.690;27.956;2024-01-30T04:25:30;51.23;;;16.40;;
18695;SDS011;22617;43.690;27.956;2024-01-30T04:30:34;42.43;;;14.97;;
18695;SDS011;22617;43.690;27.956;2024-01-30T04:35:37;44.87;;;14.73;;
18695;SDS011;22617;43.690;27.956;2024-01-30T04:40:42;43.23;;;14.30;;
18695;SDS011;22617;43.690;27.956;2024-01-30T04:45:45;42.60;;;14.40;;
18695;SDS011;22617;43.690;27.956;2024-01-30T04:50:49;42.30;;;14.37;;
18695;SDS011;22617;43.690;27.956;2024-01-30T04:55:54;46.63;;;15.40;;
18695;SDS011;22617;43.690;27.956;2024-01-30T05:00:57;45.47;;;14.47;;
18695;SDS011;22617;43.690;27.956;2024-01-30T05:06:01;48.67;;;15.83;;
18695;SDS011;22617;43.690;27.956;2024-01-30T05:11:06;45.13;;;15.23;;
18695;SDS011;22617;43.690;27.956;2024-01-30T05:16:10;39.97;;;13.90;;
18695;SDS011;22617;43.690;27.956;2024-01-30T05:21:13;41.73;;;13.83;;
18695;SDS011;22617;43.690;27.956;2024-01-30T05:26:18;42.83;;;15.23;;
18695;SDS011;22617;43.690;27.956;2024-01-30T05:31:22;39.97;;;14.03;;
18695;SDS011;22617;43.690;27.956;2024-01-30T05:36:26;38.00;;;13.87;;
18695;SDS011;22617;43.690;27.956;2024-01-30T05:41:31;47.00;;;16.40;;
18695;SDS011;22617;43.690;27.956;2024-01-30T05:46:35;44.77;;;14.83;;
18695;SDS011;22617;43.690;27.956;2024-01-30T05:51:39;39.07;;;14.27;;
18695;SDS011;22617;43.690;27.956;2024-01-30T05:56:44;42.60;;;14.13;;
18695;SDS011;22617;43.690;27.956;2024-01-30T06:01:47;40.47;;;14.00;;
18695;SDS011;22617;43.690;27.956;2024-01-30T06:06:51;34.67;;;12.80;;
18695;SDS011;22617;43.690;27.956;2024-01-30T06:11:56;39.93;;;14.17;;
18695;SDS011;22617;43.690;27.956;2024-01-30T06:17:00;39.00;;;13.83;;
18695;SDS011;22617;43.690;27.956;2024-01-30T06:22:03;38.10;;;13.67;;
18695;SDS011;22617;43.690;27.956;2024-01-30T06:27:08;38.17;;;14.00;;
18695;SDS011;22617;43.690;27.956;2024-01-30T06:32:11;35.97;;;12.83;;
18695;SDS011;22617;43.690;27.956;2024-01-30T06:37:15;40.57;;;13.10;;
18695;SDS011;22617;43.690;27.956;2024-01-30T06:42:20;36.70;;;12.73;;
18695;SDS011;22617;43.690;27.956;2024-01-30T06:47:23;31.50;;;11.53;;
18695;SDS011;22617;43.690;27.956;2024-01-30T06:52:27;35.40;;;12.07;;
18695;SDS011;22617;43.690;27.956;2024-01-30T06:57:32;36.13;;;13.17;;
18695;SDS011;22617;43.690;27.956;2024-01-30T07:02:36;36.03;;;12.23;;
18695;SDS011;22617;43.690;27.956;2024-01-30T07:07:39;31.17;;;11.70;;
18695;SDS011;22617;43.690;27.956;2024-01-30T07:12:44;28.80;;;10.63;;
18695;SDS011;22617;43.690;27.956;2024-01-30T07:17:48;27.53;;;9.80;;
18695;SDS011;22617;43.690;27.956;2024-01-30T07:22:51;29.13;;;10.33;;
18695;SDS011;22617;43.690;27.956;2024-01-30T07:27:56;31.17;;;11.27;;
18695;SDS011;22617;43.690;27.956;2024-01-30T07:32:59;28.90;;;11.33;;
18695;SDS011;22617;43.690;27.956;2024-01-30T07:38:03;28.73;;;10.50;;
18695;SDS011;22617;43.690;27.956;2024-01-30T07:43:08;26.00;;;10.53;;
18695;SDS011;22617;43.690;27.956;2024-01-30T07:48:12;31.77;;;11.17;;
18695;SDS011;22617;43.690;27.956;2024-01-30T07:53:16;28.43;;;10.23;;
18695;SDS011;22617;43.690;27.956;2024-01-30T07:58:21;31.47;;;10.50;;
18695;SDS011;22617;43.690;27.956;2024-01-30T08:03:25;29.57;;;11.00;;
18695;SDS011;22617;43.690;27.956;2024-01-30T08:08:29;28.23;;;10.37;;
18695;SDS011;22617;43.690;27.956;2024-01-30T08:13:33;35.27;;;11.13;;
18695;SDS011;22617;43.690;27.956;2024-01-30T08:18:37;28.57;;;11.07;;
18695;SDS011;22617;43.690;27.956;2024-01-30T08:23:41;31.77;;;11.70;;
18695;SDS011;22617;43.690;27.956;2024-01-30T08:28:46;25.70;;;9.60;;
18695;SDS011;22617;43.690;27.956;2024-01-30T08:33:50;32.97;;;10.80;;
18695;SDS011;22617;43.690;27.956;2024-01-30T08:38:54;30.07;;;10.57;;
18695;SDS011;22617;43.690;27.956;2024-01-30T08:44:05;28.07;;;10.03;;
18695;SDS011;22617;43.690;27.956;2024-01-30T08:49:08;27.87;;;10.53;;
18695;SDS011;22617;43.690;27.956;2024-01-30T08:54:12;24.90;;;9.03;;
18695;SDS011;22617;43.690;27.956;2024-01-30T08:59:17;23.87;;;8.77;;
18695;SDS011;22617;43.690;27.956;2024-01-30T09:04:20;21.97;;;9.07;;
18695;SDS011;22617;43.690;27.956;2024-01-30T09:09:27;22.80;;;8.93;;
18695;SDS011;22617;43.690;27.956;2024-01-30T09:14:32;22.93;;;9.53;;
18695;SDS011;22617;43.690;27.956;2024-01-30T09:19:35;19.20;;;8.83;;
18695;SDS011;22617;43.690;27.956;2024-01-30T09:24:40;22.50;;;9.00;;
18695;SDS011;22617;43.690;27.956;2024-01-30T09:29:45;21.97;;;9.13;;
18695;SDS011;22617;43.690;27.956;2024-01-30T09:34:48;24.03;;;9.33;;
18695;SDS011;22617;43.690;27.956;2024-01-30T09:39:52;25.33;;;9.10;;
18695;SDS011;22617;43.690;27.956;2024-01-30T09:44:57;23.77;;;9.67;;
18695;SDS011;22617;43.690;27.956;2024-01-30T09:50:00;23.13;;;9.47;;
18695;SDS011;22617;43.690;27.956;2024-01-30T09:55:08;22.70;;;9.57;;
18695;SDS011;22617;43.690;27.956;2024-01-30T10:00:14;18.87;;;8.97;;
18695;SDS011;22617;43.690;27.956;2024-01-30T10:05:18;22.30;;;8.47;;
18695;SDS011;22617;43.690;27.956;2024-01-30T10:10:22;18.90;;;8.20;;
18695;SDS011;22617;43.690;27.956;2024-01-30T10:15:28;18.90;;;7.93;;
18695;SDS011;22617;43.690;27.956;2024-01-30T10:20:31;21.03;;;7.60;;
18695;SDS011;22617;43.690;27.956;2024-01-30T10:25:35;15.83;;;7.93;;
18695;SDS011;22617;43.690;27.956;2024-01-30T10:30:40;16.70;;;7.77;;
18695;SDS011;22617;43.690;27.956;2024-01-30T10:35:44;15.23;;;7.10;;
18695;SDS011;22617;43.690;27.956;2024-01-30T10:40:49;16.20;;;6.80;;
18695;SDS011;22617;43.690;27.956;2024-01-30T10:45:56;14.03;;;7.00;;
18695;SDS011;22617;43.690;27.956;2024-01-30T10:51:04;20.23;;;9.23;;
18695;SDS011;22617;43.690;27.956;2024-01-30T10:56:08;17.03;;;7.93;;
18695;SDS011;22617;43.690;27.956;2024-01-30T11:01:16;16.17;;;7.17;;
18695;SDS011;22617;43.690;27.956;2024-01-30T11:06:22;15.53;;;7.27;;
18695;SDS011;22617;43.690;27.956;2024-01-30T11:11:26;15.37;;;7.20;;
18695;SDS011;22617;43.690;27.956;2024-01-30T11:16:32;15.27;;;7.73;;
18695;SDS011;22617;43.690;27.956;2024-01-30T11:21:40;17.50;;;7.37;;
18695;SDS011;22617;43.690;27.956;2024-01-30T11:26:44;17.43;;;8.17;;
18695;SDS011;22617;43.690;27.956;2024-01-30T11:31:55;27.10;;;11.73;;
18695;SDS011;22617;43.690;27.956;2024-01-30T11:37:02;20.83;;;8.37;;
18695;SDS011;22617;43.690;27.956;2024-01-30T11:42:12;19.47;;;8.43;;
18695;SDS011;22617;43.690;27.956;2024-01-30T11:47:17;13.27;;;6.73;;
18695;SDS011;22617;43.690;27.956;2024-01-30T11:52:21;15.53;;;6.80;;
18695;SDS011;22617;43.690;27.956;2024-01-30T11:57:26;12.60;;;6.10;;
18695;SDS011;22617;43.690;27.956;2024-01-30T12:02:31;12.40;;;6.10;;
18695;SDS011;22617;43.690;27.956;2024-01-30T12:07:35;14.47;;;7.13;;
18695;SDS011;22617;43.690;27.956;2024-01-30T12:12:39;12.57;;;5.77;;
18695;SDS011;22617;43.690;27.956;2024-01-30T12:17:45;12.53;;;6.07;;
18695;SDS011;22617;43.690;27.956;2024-01-30T12:22:49;13.63;;;6.17;;
18695;SDS011;22617;43.690;27.956;2024-01-30T12:27:53;13.70;;;5.63;;
18695;SDS011;22617;43.690;27.956;2024-01-30T12:32:58;12.80;;;5.93;;
18695;SDS011;22617;43.690;27.956;2024-01-30T12:38:02;11.97;;;5.13;;
18695;SDS011;22617;43.690;27.956;2024-01-30T12:43:05;12.77;;;6.97;;
18695;SDS011;22617;43.690;27.956;2024-01-30T12:48:11;14.20;;;6.20;;
18695;SDS011;22617;43.690;27.956;2024-01-30T12:53:14;11.70;;;5.60;;
18695;SDS011;22617;43.690;27.956;2024-01-30T12:58:18;12.80;;;5.60;;
18695;SDS011;22617;43.690;27.956;2024-01-30T13:03:23;12.37;;;5.83;;
18695;SDS011;22617;43.690;27.956;2024-01-30T13:08:26;13.20;;;5.80;;
18695;SDS011;22617;43.690;27.956;2024-01-30T13:13:30;12.33;;;5.97;;
18695;SDS011;22617;43.690;27.956;2024-01-30T13:18:35;12.90;;;5.33;;
18695;SDS011;22617;43.690;27.956;2024-01-30T13:23:39;10.13;;;5.10;;
18695;SDS011;22617;43.690;27.956;2024-01-30T13:28:42;10.00;;;4.83;;
18695;SDS011;22617;43.690;27.956;2024-01-30T13:33:48;12.43;;;5.60;;
18695;SDS011;22617;43.690;27.956;2024-01-30T13:38:51;13.77;;;5.80;;
18695;SDS011;22617;43.690;27.956;2024-01-30T13:43:55;11.83;;;5.10;;
18695;SDS011;22617;43.690;27.956;2024-01-30T13:49:00;11.40;;;4.90;;
18695;SDS011;22617;43.690;27.956;2024-01-30T13:54:04;11.53;;;5.40;;
18695;SDS011;22617;43.690;27.956;2024-01-30T13:59:07;9.50;;;4.33;;
18695;SDS011;22617;43.690;27.956;2024-01-30T14:04:12;11.00;;;4.77;;
18695;SDS011;22617;43.690;27.956;2024-01-30T14:09:17;12.73;;;4.60;;
18695;SDS011;22617;43.690;27.956;2024-01-30T14:14:20;12.43;;;5.70;;
18695;SDS011;22617;43.690;27.956;2024-01-30T14:19:25;11.00;;;4.67;;
18695;SDS011;22617;43.690;27.956;2024-01-30T14:24:29;11.30;;;4.73;;
18695;SDS011;22617;43.690;27.956;2024-01-30T14:29:32;15.00;;;5.73;;
18695;SDS011;22617;43.690;27.956;2024-01-30T14:34:37;21.47;;;9.23;;
18695;SDS011;22617;43.690;27.956;2024-01-30T14:39:41;28.20;;;12.53;;
18695;SDS011;22617;43.690;27.956;2024-01-30T14:44:45;15.93;;;7.43;;
18695;SDS011;22617;43.690;27.956;2024-01-30T14:49:50;10.97;;;5.00;;
18695;SDS011;22617;43.690;27.956;2024-01-30T14:54:54;17.90;;;6.87;;
18695;SDS011;22617;43.690;27.956;2024-01-30T14:59:57;12.03;;;5.73;;
18695;SDS011;22617;43.690;27.956;2024-01-30T15:05:02;15.23;;;6.17;;
18695;SDS011;22617;43.690;27.956;2024-01-30T15:10:07;14.27;;;7.57;;
18695;SDS011;22617;43.690;27.956;2024-01-30T15:15:12;15.30;;;6.60;;
18695;SDS011;22617;43.690;27.956;2024-01-30T15:20:17;17.60;;;7.43;;
18695;SDS011;22617;43.690;27.956;2024-01-30T15:25:21;17.23;;;7.00;;
18695;SDS011;22617;43.690;27.956;2024-01-30T15:30:24;12.60;;;5.57;;
18695;SDS011;22617;43.690;27.956;2024-01-30T15:35:29;17.13;;;7.23;;
18695;SDS011;22617;43.690;27.956;2024-01-30T15:40:32;11.30;;;5.90;;
18695;SDS011;22617;43.690;27.956;2024-01-30T15:45:36;16.57;;;7.37;;
18695;SDS011;22617;43.690;27.956;2024-01-30T15:50:41;17.87;;;7.60;;
18695;SDS011;22617;43.690;27.956;2024-01-30T15:55:44;18.20;;;6.93;;
18695;SDS011;22617;43.690;27.956;2024-01-30T16:00:48;15.10;;;6.90;;
18695;SDS011;22617;43.690;27.956;2024-01-30T16:05:53;18.10;;;7.43;;
18695;SDS011;22617;43.690;27.956;2024-01-30T16:10:57;14.87;;;6.37;;
18695;SDS011;22617;43.690;27.956;2024-01-30T16:16:00;23.60;;;10.67;;
18695;SDS011;22617;43.690;27.956;2024-01-30T16:21:05;16.33;;;7.83;;
18695;SDS011;22617;43.690;27.956;2024-01-30T16:26:31;16.60;;;7.87;;
18695;SDS011;22617;43.690;27.956;2024-01-30T16:31:53;24.70;;;10.47;;
18695;SDS011;22617;43.690;27.956;2024-01-30T16:37:17;24.63;;;9.40;;
18695;SDS011;22617;43.690;27.956;2024-01-30T16:42:40;21.90;;;9.43;;
18695;SDS011;22617;43.690;27.956;2024-01-30T16:48:02;23.17;;;9.70;;
18695;SDS011;22617;43.690;27.956;2024-01-30T16:53:08;21.83;;;9.53;;
18695;SDS011;22617;43.690;27.956;2024-01-30T16:58:11;20.03;;;9.40;;
18695;SDS011;22617;43.690;27.956;2024-01-30T17:03:15;29.73;;;11.83;;
18695;SDS011;22617;43.690;27.956;2024-01-30T17:08:20;28.30;;;11.63;;
18695;SDS011;22617;43.690;27.956;2024-01-30T17:13:23;27.27;;;9.70;;
18695;SDS011;22617;43.690;27.956;2024-01-30T17:18:27;22.80;;;9.83;;
18695;SDS011;22617;43.690;27.956;2024-01-30T17:23:32;24.13;;;9.90;;
18695;SDS011;22617;43.690;27.956;2024-01-30T17:28:36;20.87;;;10.10;;
18695;SDS011;22617;43.690;27.956;2024-01-30T17:33:40;23.00;;;9.30;;
18695;SDS011;22617;43.690;27.956;2024-01-30T17:38:45;24.33;;;8.57;;
18695;SDS011;22617;43.690;27.956;2024-01-30T17:43:49;29.27;;;11.37;;
18695;SDS011;22617;43.690;27.956;2024-01-30T17:48:52;23.53;;;9.70;;
18695;SDS011;22617;43.690;27.956;2024-01-30T17:53:59;25.53;;;10.23;;
18695;SDS011;22617;43.690;27.956;2024-01-30T17:59:03;35.57;;;13.17;;
18695;SDS011;22617;43.690;27.956;2024-01-30T18:04:06;31.90;;;14.77;;
18695;SDS011;22617;43.690;27.956;2024-01-30T18:09:12;29.30;;;14.13;;
18695;SDS011;22617;43.690;27.956;2024-01-30T18:14:16;29.73;;;13.73;;
18695;SDS011;22617;43.690;27.956;2024-01-30T18:19:19;32.40;;;13.20;;
18695;SDS011;22617;43.690;27.956;2024-01-30T18:24:24;27.63;;;12.50;;
18695;SDS011;22617;43.690;27.956;2024-01-30T18:29:29;22.27;;;11.13;;
18695;SDS011;22617;43.690;27.956;2024-01-30T18:34:32;26.27;;;10.20;;
18695;SDS011;22617;43.690;27.956;2024-01-30T18:39:37;25.90;;;10.60;;
18695;SDS011;22617;43.690;27.956;2024-01-30T18:44:43;21.17;;;9.73;;
18695;SDS011;22617;43.690;27.956;2024-01-30T18:49:47;34.67;;;13.70;;
18695;SDS011;22617;43.690;27.956;2024-01-30T18:54:56;28.33;;;11.53;;
18695;SDS011;22617;43.690;27.956;2024-01-30T18:59:59;26.67;;;10.80;;
18695;SDS011;22617;43.690;27.956;2024-01-30T19:05:05;29.00;;;12.47;;
18695;SDS011;22617;43.690;27.956;2024-01-30T19:10:11;31.03;;;12.23;;
18695;SDS011;22617;43.690;27.956;2024-01-30T19:15:14;29.23;;;11.90;;
18695;SDS011;22617;43.690;27.956;2024-01-30T19:20:18;33.17;;;13.03;;
18695;SDS011;22617;43.690;27.956;2024-01-30T19:25:26;33.20;;;12.93;;
18695;SDS011;22617;43.690;27.956;2024-01-30T19:30:31;28.07;;;11.00;;
18695;SDS011;22617;43.690;27.956;2024-01-30T19:35:35;25.60;;;10.70;;
18695;SDS011;22617;43.690;27.956;2024-01-30T19:40:40;24.47;;;10.63;;
18695;SDS011;22617;43.690;27.956;2024-01-30T19:45:43;24.47;;;10.00;;
18695;SDS011;22617;43.690;27.956;2024-01-30T19:50:47;25.83;;;10.13;;
18695;SDS011;22617;43.690;27.956;2024-01-30T19:55:52;25.73;;;10.77;;
18695;SDS011;22617;43.690;27.956;2024-01-30T20:00:55;26.73;;;10.33;;
18695;SDS011;22617;43.690;27.956;2024-01-30T20:06:00;28.10;;;10.20;;
18695;SDS011;22617;43.690;27.956;2024-01-30T20:11:12;24.77;;;10.03;;
18695;SDS011;22617;43.690;27.956;2024-01-30T20:16:17;25.10;;;10.57;;
18695;SDS011;22617;43.690;27.956;2024-01-30T20:21:20;25.43;;;10.70;;
18695;SDS011;22617;43.690;27.956;2024-01-30T20:26:26;26.90;;;10.37;;
18695;SDS011;22617;43.690;27.956;2024-01-30T20:31:30;24.03;;;10.90;;
18695;SDS011;22617;43.690;27.956;2024-01-30T20:36:34;26.37;;;10.00;;
18695;SDS011;22617;43.690;27.956;2024-01-30T20:41:41;29.27;;;10.57;;
18695;SDS011;22617;43.690;27.956;2024-01-30T20:46:46;23.37;;;9.90;;
18695;SDS011;22617;43.690;27.956;2024-01-30T20:51:50;25.57;;;10.97;;
18695;SDS011;22617;43.690;27.956;2024-01-30T20:56:55;26.90;;;11.77;;
18695;SDS011;22617;43.690;27.956;2024-01-30T21:01:58;28.73;;;12.23;;
18695;SDS011;22617;43.690;27.956;2024-01-30T21:07:02;33.80;;;12.77;;
18695;SDS011;22617;43.690;27.956;2024-01-30T21:12:07;26.40;;;11.33;;
18695;SDS011;22617;43.690;27.956;2024-01-30T21:17:11;25.87;;;10.70;;
18695;SDS011;22617;43.690;27.956;2024-01-30T21:22:14;28.20;;;11.07;;
18695;SDS011;22617;43.690;27.956;2024-01-30T21:27:19;32.60;;;12.80;;
18695;SDS011;22617;43.690;27.956;2024-01-30T21:32:23;27.97;;;11.00;;
18695;SDS011;22617;43.690;27.956;2024-01-30T21:37:26;26.73;;;11.20;;
18695;SDS011;22617;43.690;27.956;2024-01-30T21:42:31;24.47;;;10.10;;
18695;SDS011;22617;43.690;27.956;2024-01-30T21:47:35;25.97;;;10.90;;
18695;SDS011;22617;43.690;27.956;2024-01-30T21:52:38;31.97;;;11.37;;
18695;SDS011;22617;43.690;27.956;2024-01-30T21:57:43;29.10;;;12.07;;
18695;SDS011;22617;43.690;27.956;2024-01-30T22:02:47;26.90;;;10.93;;
18695;SDS011;22617;43.690;27.956;2024-01-30T22:07:50;32.83;;;11.97;;
18695;SDS011;22617;43.690;27.956;2024-01-30T22:12:55;30.60;;;11.93;;
18695;SDS011;22617;43.690;27.956;2024-01-30T22:17:59;31.60;;;12.07;;
18695;SDS011;22617;43.690;27.956;2024-01-30T22:23:02;31.20;;;12.40;;
18695;SDS011;22617;43.690;27.956;2024-01-30T22:28:08;30.20;;;11.80;;
18695;SDS011;22617;43.690;27.956;2024-01-30T22:33:11;30.70;;;12.47;;
18695;SDS011;22617;43.690;27.956;2024-01-30T22:38:15;31.93;;;11.83;;
18695;SDS011;22617;43.690;27.956;2024-01-30T22:43:21;29.93;;;11.80;;
18695;SDS011;22617;43.690;27.956;2024-01-30T22:48:26;29.67;;;11.27;;
18695;SDS011;22617;43.690;27.956;2024-01-30T22:53:30;32.17;;;12.60;;
18695;SDS011;22617;43.690;27.956;2024-01-30T22:58:36;37.93;;;13.40;;
18695;SDS011;22617;43.690;27.956;2024-01-30T23:03:39;31.37;;;12.10;;
18695;SDS011;22617;43.690;27.956;2024-01-30T23:08:43;34.57;;;12.23;;
18695;SDS011;22617;43.690;27.956;2024-01-30T23:13:48;35.27;;;12.60;;
18695;SDS011;22617;43.690;27.956;2024-01-30T23:18:51;42.27;;;13.97;;
18695;SDS011;22617;43.690;27.956;2024-01-30T23:23:56;39.13;;;14.03;;
18695;SDS011;22617;43.690;27.956;2024-01-30T23:29:01;41.57;;;13.70;;
18695;SDS011;22617;43.690;27.956;2024-01-30T23:34:04;31.73;;;12.43;;
18695;SDS011;22617;43.690;27.956;2024-01-30T23:39:08;31.37;;;12.17;;
18695;SDS011;22617;43.690;27.956;2024-01-30T23:44:14;30.10;;;11.53;;
18695;SDS011;22617;43.690;27.956;2024-01-30T23:49:18;32.23;;;12.37;;
18695;SDS011;22617;43.690;27.956;2024-01-30T23:54:22;30.07;;;11.80;;
18695;SDS011;22617;43.690;27.956;2024-01-30T23:59:27;35.83;;;12.20;;
